createdAt,value
2023-04-03T11:36:47.416Z,1020.69
2023-04-03T11:37:47.277Z,1020.64
2023-04-03T11:38:47.297Z,1020.67
2023-04-03T11:39:47.229Z,1020.62
2023-04-03T11:40:47.234Z,1020.68
2023-04-03T11:41:47.251Z,1020.64
2023-04-03T11:42:47.200Z,1020.69
2023-04-03T11:43:47.173Z,1020.55
2023-04-03T11:44:47.152Z,1020.61
2023-04-03T11:45:47.122Z,1020.53
2023-04-03T11:46:47.131Z,1020.60
2023-04-03T11:47:47.129Z,1020.60
2023-04-03T11:48:47.084Z,1020.58
2023-04-03T11:49:47.023Z,1020.49
2023-04-03T11:50:47.013Z,1020.53
2023-04-03T11:51:46.985Z,1020.51
2023-04-03T11:52:47.097Z,1020.48
2023-04-03T11:53:46.959Z,1020.50
2023-04-03T11:54:46.942Z,1020.47
2023-04-03T11:55:46.926Z,1020.50
2023-04-03T11:56:46.903Z,1020.44
2023-04-03T11:57:46.907Z,1020.46
2023-04-03T11:58:46.892Z,1020.49
2023-04-03T11:59:46.847Z,1020.42
2023-04-03T12:00:46.844Z,1020.42
2023-04-03T12:01:46.845Z,1020.44
2023-04-03T12:02:54.196Z,1020.51
2023-04-03T12:03:47.005Z,1020.46
2023-04-03T12:04:46.777Z,1020.40
2023-04-03T12:05:46.753Z,1020.39
2023-04-03T12:06:46.746Z,1020.39
2023-04-03T12:07:46.690Z,1020.38
2023-04-03T12:08:46.758Z,1020.34
2023-04-03T12:09:46.649Z,1020.38
2023-04-03T12:10:46.638Z,1020.31
2023-04-03T12:11:46.643Z,1020.32
2023-04-03T12:12:46.621Z,1020.31
2023-04-03T12:13:46.607Z,1020.31
2023-04-03T12:14:46.587Z,1020.20
2023-04-03T12:15:46.561Z,1020.18
2023-04-03T12:16:46.543Z,1020.24
2023-04-03T12:17:46.608Z,1020.23
2023-04-03T12:18:46.534Z,1020.17
2023-04-03T12:19:46.495Z,1020.25
2023-04-03T12:20:46.465Z,1020.27
2023-04-03T12:21:46.461Z,1020.25
2023-04-03T12:22:46.434Z,1020.22
2023-04-03T12:23:46.424Z,1020.25
2023-04-03T12:24:46.526Z,1020.21
2023-04-03T12:25:46.377Z,1020.18
2023-04-03T12:26:48.975Z,1020.20
2023-04-03T12:27:46.345Z,1020.12
2023-04-03T12:28:46.369Z,1020.06
2023-04-03T12:29:46.329Z,1020.16
2023-04-03T12:30:46.395Z,1020.06
2023-04-03T12:31:46.307Z,1020.09
2023-04-03T12:32:46.356Z,1020.15
2023-04-03T12:33:46.276Z,1020.10
2023-04-03T12:34:46.263Z,1020.13
2023-04-03T12:35:46.292Z,1020.09
2023-04-03T12:36:46.223Z,1020.08
2023-04-03T12:37:46.212Z,1020.08
2023-04-03T12:38:46.219Z,1020.02
2023-04-03T12:39:46.201Z,1020.07
2023-04-03T12:40:46.250Z,1019.99
2023-04-03T12:41:46.150Z,1020.00
2023-04-03T12:42:46.152Z,1020.04
2023-04-03T12:43:46.156Z,1020.02
2023-04-03T12:44:46.153Z,1019.97
2023-04-03T12:45:46.124Z,1019.98
2023-04-03T12:46:46.147Z,1019.94
2023-04-03T12:47:46.073Z,1019.97
2023-04-03T12:48:46.065Z,1019.95
2023-04-03T12:49:46.083Z,1019.92
2023-04-03T12:50:46.072Z,1019.97
2023-04-03T12:51:46.014Z,1020.01
2023-04-03T12:52:45.997Z,1019.96
2023-04-03T12:53:46.072Z,1019.99
2023-04-03T12:54:45.965Z,1019.96
2023-04-03T12:55:45.952Z,1019.95
2023-04-03T12:56:46.038Z,1019.96
2023-04-03T12:57:45.922Z,1019.89
2023-04-03T12:58:45.945Z,1019.90
2023-04-03T12:59:45.891Z,1019.94
2023-04-03T13:00:45.876Z,1019.85
2023-04-03T13:01:45.899Z,1019.89
2023-04-03T13:02:45.934Z,1019.92
2023-04-03T13:03:45.919Z,1019.91
2023-04-03T13:04:45.870Z,1019.91
2023-04-03T13:05:45.820Z,1019.93
2023-04-03T13:06:45.795Z,1019.92
2023-04-03T13:07:45.802Z,1019.86
2023-04-03T13:08:45.799Z,1019.84
2023-04-03T13:09:45.753Z,1019.86
2023-04-03T13:10:45.735Z,1019.85
2023-04-03T13:11:45.742Z,1019.83
2023-04-03T13:12:45.786Z,1019.79
2023-04-03T13:13:45.682Z,1019.85
2023-04-03T13:14:45.689Z,1019.82
2023-04-03T13:15:45.694Z,1019.84
2023-04-03T13:16:45.670Z,1019.77
2023-04-03T13:17:45.713Z,1019.77
2023-04-03T13:18:45.619Z,1019.74
2023-04-03T13:19:45.616Z,1019.73
2023-04-03T13:20:45.590Z,1019.76
2023-04-03T13:21:45.594Z,1019.78
2023-04-03T13:22:45.593Z,1019.79
2023-04-03T13:23:45.553Z,1019.69
2023-04-03T13:24:45.559Z,1019.73
2023-04-03T13:25:45.535Z,1019.72
2023-04-03T13:26:45.544Z,1019.72
2023-04-03T13:27:45.529Z,1019.75
2023-04-03T13:28:45.600Z,1019.69
2023-04-03T13:29:45.485Z,1019.78
2023-04-03T13:30:45.483Z,1019.78
2023-04-03T13:31:45.461Z,1019.72
2023-04-03T13:32:45.492Z,1019.64
2023-04-03T13:33:45.447Z,1019.63
2023-04-03T13:34:47.372Z,1019.63
2023-04-03T13:35:45.436Z,1019.64
2023-04-03T13:36:45.401Z,1019.66
2023-04-03T13:37:45.388Z,1019.59
2023-04-03T13:38:45.409Z,1019.59
2023-04-03T13:39:45.375Z,1019.57
2023-04-03T13:40:47.828Z,1019.56
2023-04-03T13:41:45.333Z,1019.56
2023-04-03T13:42:45.348Z,1019.55
2023-04-03T13:43:45.348Z,1019.55
2023-04-03T13:44:45.318Z,1019.51
2023-04-03T13:45:45.301Z,1019.51
2023-04-03T13:46:45.277Z,1019.46
2023-04-03T13:47:45.290Z,1019.49
2023-04-03T13:48:45.261Z,1019.44
2023-04-03T13:49:45.262Z,1019.43
2023-04-03T13:50:45.297Z,1019.43
2023-04-03T13:51:47.778Z,1019.41
2023-04-03T13:52:45.223Z,1019.47
2023-04-03T13:53:45.202Z,1019.45
2023-04-03T13:54:45.203Z,1019.45
2023-04-03T13:55:45.193Z,1019.43
2023-04-03T13:56:45.208Z,1019.38
2023-04-03T13:57:45.171Z,1019.41
2023-04-03T13:58:45.179Z,1019.40
2023-04-03T13:59:45.124Z,1019.39
2023-04-03T14:00:45.127Z,1019.39
2023-04-03T14:01:45.186Z,1019.39
2023-04-03T14:02:45.135Z,1019.35
2023-04-03T14:03:45.087Z,1019.31
2023-04-03T14:04:45.381Z,1019.35
2023-04-03T14:05:45.068Z,1019.32
2023-04-03T14:06:45.048Z,1019.36
2023-04-03T14:07:45.045Z,1019.34
2023-04-03T14:08:45.069Z,1019.34
2023-04-03T14:09:45.013Z,1019.22
2023-04-03T14:10:45.001Z,1019.24
2023-04-03T14:11:45.001Z,1019.24
2023-04-03T14:12:45.002Z,1019.23
2023-04-03T14:13:44.995Z,1019.25
2023-04-03T14:14:44.954Z,1019.21
2023-04-03T14:15:44.932Z,1019.22
2023-04-03T14:16:44.939Z,1019.21
2023-04-03T14:17:44.982Z,1019.21
2023-04-03T14:18:44.924Z,1019.29
2023-04-03T14:19:44.895Z,1019.32
2023-04-03T14:20:44.911Z,1019.34
2023-04-03T14:21:44.886Z,1019.33
2023-04-03T14:22:44.883Z,1019.41
2023-04-03T14:23:44.876Z,1019.40
2023-04-03T14:24:44.887Z,1019.45
2023-04-03T14:25:44.892Z,1019.35
2023-04-03T14:26:44.827Z,1019.38
2023-04-03T14:27:44.804Z,1019.34
2023-04-03T14:28:45.452Z,1019.35
2023-04-03T14:29:44.804Z,1019.33
2023-04-03T14:30:44.801Z,1019.29
2023-04-03T14:31:44.798Z,1019.29
2023-04-03T14:32:44.782Z,1019.19
2023-04-03T14:33:44.804Z,1019.16
2023-04-03T14:34:44.765Z,1019.11
2023-04-03T14:35:44.761Z,1019.07
2023-04-03T14:36:44.789Z,1019.03
2023-04-03T14:37:44.699Z,1018.95
2023-04-03T14:38:44.851Z,1018.95
2023-04-03T14:39:44.689Z,1018.93
2023-04-03T14:40:44.698Z,1018.99
2023-04-03T14:41:44.660Z,1019.02
2023-04-03T14:42:44.659Z,1019.02
2023-04-03T14:43:44.662Z,1019.01
2023-04-03T14:44:44.647Z,1019.01
2023-04-03T14:45:44.640Z,1018.96
2023-04-03T14:46:56.309Z,1018.95
2023-04-03T14:47:44.736Z,1019.00
2023-04-03T14:48:44.623Z,1018.90
2023-04-03T14:49:44.603Z,1018.90
2023-04-03T14:50:51.665Z,1018.92
2023-04-03T14:51:44.585Z,1018.92
2023-04-03T14:52:44.569Z,1018.93
2023-04-03T14:53:44.607Z,1018.93
2023-04-03T14:54:44.565Z,1018.88
2023-04-03T14:55:44.525Z,1018.89
2023-04-03T14:56:44.524Z,1018.89
2023-04-03T14:57:44.516Z,1018.88
2023-04-03T14:58:44.521Z,1018.88
2023-04-03T14:59:44.509Z,1018.92
2023-04-03T15:00:44.505Z,1018.89
2023-04-03T15:01:44.541Z,1018.86
2023-04-03T15:02:44.605Z,1018.85
2023-04-03T15:03:44.679Z,1018.86
2023-04-03T15:04:44.551Z,1018.84
2023-04-03T15:05:44.434Z,1018.79
2023-04-03T15:06:44.432Z,1018.69
2023-04-03T15:07:44.435Z,1018.77
2023-04-03T15:08:44.440Z,1018.70
2023-04-03T15:09:44.406Z,1018.68
2023-04-03T15:10:44.419Z,1018.67
2023-04-03T15:11:44.410Z,1018.68
2023-04-03T15:12:44.398Z,1018.71
2023-04-03T15:13:44.392Z,1018.70
2023-04-03T15:14:51.844Z,1018.63
2023-04-03T15:15:44.354Z,1018.61
2023-04-03T15:16:44.419Z,1018.63
2023-04-03T15:17:44.393Z,1018.63
2023-04-03T15:18:44.359Z,1018.61
2023-04-03T15:19:44.317Z,1018.58
2023-04-03T15:20:44.307Z,1018.56
2023-04-03T16:15:14.003Z,1019.15
2023-04-03T16:16:14.008Z,1019.13
2023-04-03T16:17:13.949Z,1019.15
2023-04-03T16:18:13.947Z,1019.11
2023-04-03T16:19:13.909Z,1019.09
2023-04-03T16:20:13.904Z,1019.10
2023-04-03T16:21:13.862Z,1018.91
2023-04-03T16:22:13.883Z,1018.86
2023-04-03T16:23:13.847Z,1018.92
2023-04-03T16:24:15.110Z,1018.92
2023-04-03T16:25:13.806Z,1018.77
2023-04-03T16:26:13.810Z,1018.87
2023-04-03T16:27:13.772Z,1018.93
2023-04-03T16:28:13.759Z,1019.09
2023-04-03T16:29:13.779Z,1019.07
2023-04-03T16:31:25.307Z,1019.21
2023-04-03T16:33:24.969Z,1019.22
2023-04-03T16:34:24.993Z,1019.12
2023-04-03T16:35:24.943Z,1018.94
2023-04-03T16:38:37.767Z,1018.87
2023-04-03T16:39:37.715Z,1018.81
